createdAt,value
2023-04-03T00:00:15.097Z,15.83
2023-04-03T00:03:08.863Z,16.80
2023-04-03T00:05:42.480Z,15.63
2023-04-03T00:08:15.755Z,16.90
2023-04-03T00:10:49.160Z,17.33
2023-04-03T00:13:22.602Z,16.23
2023-04-03T00:15:56.441Z,15.77
2023-04-03T00:18:30.001Z,16.40
2023-04-03T00:21:03.537Z,18.73
2023-04-03T00:23:37.357Z,16.70
2023-04-03T00:26:10.384Z,18.53
2023-04-03T00:28:44.170Z,17.73
2023-04-03T00:31:19.033Z,16.77
2023-04-03T00:33:52.355Z,18.73
2023-04-03T00:36:25.673Z,19.50
2023-04-03T00:38:58.947Z,18.17
2023-04-03T00:41:33.036Z,19.63
2023-04-03T00:44:23.862Z,17.87
2023-04-03T00:46:57.407Z,17.83
2023-04-03T00:49:31.628Z,17.63
2023-04-03T00:52:05.502Z,18.07
2023-04-03T00:54:41.009Z,16.90
2023-04-03T00:57:15.046Z,16.97
2023-04-03T00:59:51.871Z,18.73
2023-04-03T01:02:25.788Z,16.87
2023-04-03T01:04:59.287Z,17.13
2023-04-03T01:07:35.129Z,16.47
2023-04-03T01:10:15.121Z,15.10
2023-04-03T01:12:50.838Z,16.83
2023-04-03T01:15:26.064Z,16.23
2023-04-03T01:18:01.906Z,18.37
2023-04-03T01:21:08.082Z,16.00
2023-04-03T01:23:53.822Z,15.97
2023-04-03T01:26:28.497Z,15.73
2023-04-03T01:29:03.912Z,15.43
2023-04-03T01:31:48.122Z,15.77
2023-04-03T01:34:22.553Z,14.73
2023-04-03T01:36:56.870Z,15.60
2023-04-03T01:39:30.308Z,14.60
2023-04-03T01:42:04.823Z,15.00
2023-04-03T01:44:41.566Z,17.33
2023-04-03T01:47:15.524Z,14.30
2023-04-03T01:49:48.756Z,15.77
2023-04-03T01:52:22.354Z,16.73
2023-04-03T01:54:55.572Z,16.07
2023-04-03T01:57:29.021Z,18.93
2023-04-03T02:00:02.510Z,19.93
2023-04-03T02:02:46.513Z,20.57
2023-04-03T02:05:21.587Z,21.73
2023-04-03T02:07:55.176Z,18.50
2023-04-03T02:10:28.820Z,20.90
2023-04-03T02:13:04.264Z,22.87
2023-04-03T02:15:39.992Z,21.10
2023-04-03T02:18:13.406Z,21.27
2023-04-03T02:20:47.335Z,21.23
2023-04-03T02:23:20.861Z,21.50
2023-04-03T02:25:54.080Z,21.07
2023-04-03T02:28:29.503Z,20.67
2023-04-03T02:31:03.581Z,23.43
2023-04-03T02:33:38.057Z,20.93
2023-04-03T02:36:13.804Z,20.17
2023-04-03T02:38:49.830Z,21.60
2023-04-03T02:41:23.527Z,19.80
2023-04-03T02:43:57.278Z,20.97
2023-04-03T02:46:30.484Z,20.53
2023-04-03T02:49:04.438Z,19.40
2023-04-03T02:51:37.931Z,20.80
2023-04-03T02:54:11.866Z,22.00
2023-04-03T02:56:46.633Z,21.50
2023-04-03T02:59:21.203Z,18.93
2023-04-03T03:01:54.993Z,20.03
2023-04-03T03:04:28.792Z,18.27
2023-04-03T03:07:03.848Z,19.80
2023-04-03T03:09:37.647Z,19.67
2023-04-03T03:12:11.818Z,18.63
2023-04-03T03:14:45.144Z,18.03
2023-04-03T03:17:17.510Z,18.00
2023-04-03T03:19:50.287Z,18.50
2023-04-03T03:22:23.068Z,22.05
2023-04-03T03:24:56.268Z,19.50
2023-04-03T03:27:29.038Z,28.45
2023-04-03T03:30:01.410Z,26.45
2023-04-03T03:32:35.477Z,22.77
2023-04-03T03:35:10.572Z,21.47
2023-04-03T03:37:44.153Z,22.43
2023-04-03T03:40:18.734Z,20.97
2023-04-03T03:42:52.275Z,20.80
2023-04-03T03:45:26.709Z,20.53
2023-04-03T03:48:00.420Z,21.27
2023-04-03T03:50:34.717Z,22.60
2023-04-03T03:53:08.308Z,21.87
2023-04-03T03:55:41.913Z,23.83
2023-04-03T03:58:15.729Z,19.37
2023-04-03T04:00:49.523Z,21.90
2023-04-03T04:03:23.603Z,22.30
2023-04-03T04:05:57.991Z,20.77
2023-04-03T04:08:31.365Z,22.70
2023-04-03T04:11:04.941Z,20.77
2023-04-03T04:13:38.642Z,19.90
2023-04-03T04:16:13.198Z,20.70
2023-04-03T04:18:46.874Z,21.57
2023-04-03T04:21:20.032Z,24.03
2023-04-03T04:23:53.963Z,22.97
2023-04-03T04:26:28.088Z,21.40
2023-04-03T04:29:02.084Z,23.40
2023-04-03T04:31:39.323Z,24.63
2023-04-03T04:34:14.068Z,22.00
2023-04-03T04:36:47.548Z,25.57
2023-04-03T04:39:20.938Z,23.40
2023-04-03T04:41:54.045Z,25.30
2023-04-03T04:44:27.882Z,26.03
2023-04-03T04:47:01.911Z,25.67
2023-04-03T04:49:35.690Z,26.40
2023-04-03T04:52:10.765Z,26.60
2023-04-03T04:54:47.649Z,27.03
2023-04-03T04:57:21.378Z,27.87
2023-04-03T04:59:55.061Z,28.80
2023-04-03T05:02:28.826Z,29.83
2023-04-03T05:05:05.748Z,29.20
2023-04-03T05:07:39.742Z,30.77
2023-04-03T05:10:14.330Z,29.10
2023-04-03T05:12:47.988Z,28.95
2023-04-03T05:15:22.383Z,30.03
2023-04-03T05:17:56.579Z,29.93
2023-04-03T05:20:29.944Z,30.97
2023-04-03T05:23:04.614Z,29.70
2023-04-03T05:25:41.534Z,30.93
2023-04-03T05:28:15.860Z,31.37
2023-04-03T05:30:55.609Z,29.27
2023-04-03T05:33:30.439Z,32.47
2023-04-03T05:36:09.136Z,26.70
2023-04-03T05:38:47.255Z,27.07
2023-04-03T05:41:22.115Z,24.47
2023-04-03T05:43:56.514Z,25.13
2023-04-03T05:46:31.126Z,24.73
2023-04-03T05:49:04.927Z,23.80
2023-04-03T05:51:39.428Z,25.60
2023-04-03T05:54:30.207Z,23.77
2023-04-03T05:57:11.176Z,22.42
2023-04-03T05:59:43.903Z,22.20
2023-04-03T06:02:18.309Z,20.25
2023-04-03T06:04:52.605Z,21.00
2023-04-03T06:07:29.424Z,21.30
2023-04-03T06:10:02.810Z,21.68
2023-04-03T06:12:35.996Z,19.23
2023-04-03T06:15:11.234Z,19.67
2023-04-03T06:17:45.489Z,17.82
2023-04-03T06:20:18.438Z,17.50
2023-04-03T06:22:52.037Z,17.20
2023-04-03T06:25:24.817Z,18.55
2023-04-03T06:27:57.861Z,17.15
2023-04-03T06:30:30.582Z,17.60
2023-04-03T06:33:03.590Z,20.20
2023-04-03T06:35:36.643Z,14.85
2023-04-03T06:38:10.786Z,16.82
2023-04-03T06:40:43.546Z,15.23
2023-04-03T06:43:16.129Z,15.10
2023-04-03T06:45:49.307Z,14.38
2023-04-03T06:48:22.120Z,15.23
2023-04-03T06:50:55.690Z,13.50
2023-04-03T06:53:28.266Z,14.13
2023-04-03T06:56:00.840Z,15.00
2023-04-03T06:58:33.453Z,12.85
2023-04-03T07:01:06.198Z,13.28
2023-04-03T07:03:39.062Z,14.13
2023-04-03T07:06:13.672Z,15.30
2023-04-03T07:08:46.588Z,12.50
2023-04-03T07:11:19.162Z,15.60
2023-04-03T07:13:51.738Z,15.03
2023-04-03T07:16:24.361Z,15.60
2023-04-03T07:18:57.910Z,13.18
2023-04-03T07:21:30.769Z,14.95
2023-04-03T07:24:03.435Z,13.00
2023-04-03T07:26:36.868Z,13.45
2023-04-03T07:29:10.477Z,13.83
2023-04-03T07:31:43.177Z,13.40
2023-04-03T07:34:15.831Z,14.43
2023-04-03T07:36:47.914Z,11.68
2023-04-03T07:39:20.771Z,14.55
2023-04-03T07:41:53.770Z,12.80
2023-04-03T07:44:27.768Z,13.60
2023-04-03T07:47:01.371Z,12.55
2023-04-03T07:49:35.990Z,12.65
2023-04-03T07:52:10.226Z,13.00
2023-04-03T07:54:43.605Z,11.63
2023-04-03T07:57:15.962Z,12.33
2023-04-03T07:59:48.544Z,12.33
2023-04-03T08:02:21.332Z,13.55
2023-04-03T08:04:53.837Z,13.45
2023-04-03T08:07:27.085Z,11.80
2023-04-03T08:09:59.868Z,13.58
2023-04-03T08:12:33.470Z,12.98
2023-04-03T08:15:06.277Z,12.93
2023-04-03T08:17:39.054Z,14.60
2023-04-03T08:20:13.069Z,11.93
2023-04-03T08:22:45.825Z,11.33
2023-04-03T08:25:19.026Z,14.63
2023-04-03T08:27:51.606Z,12.23
2023-04-03T08:30:24.039Z,12.75
2023-04-03T08:32:56.769Z,11.55
2023-04-03T08:35:29.207Z,12.63
2023-04-03T08:38:02.300Z,11.90
2023-04-03T08:40:34.872Z,12.68
2023-04-03T08:43:13.484Z,13.00
2023-04-03T08:45:48.250Z,13.28
2023-04-03T08:48:22.844Z,12.53
2023-04-03T08:50:57.731Z,13.62
2023-04-03T08:53:33.749Z,11.65
2023-04-03T08:56:07.694Z,12.13
2023-04-03T08:58:44.140Z,12.15
2023-04-03T09:01:20.255Z,11.75
2023-04-03T09:03:52.936Z,12.45
2023-04-03T09:06:30.345Z,10.93
2023-04-03T09:09:10.020Z,11.93
2023-04-03T09:11:47.381Z,12.07
2023-04-03T09:14:25.489Z,11.28
2023-04-03T09:16:59.220Z,10.85
2023-04-03T09:19:38.166Z,12.40
2023-04-03T09:22:16.043Z,11.83
2023-04-03T09:24:49.966Z,12.95
2023-04-03T09:27:22.584Z,11.40
2023-04-03T09:29:56.356Z,12.53
2023-04-03T09:32:31.168Z,14.75
2023-04-03T09:35:19.053Z,13.53
2023-04-03T09:37:55.511Z,12.95
2023-04-03T09:40:36.847Z,13.30
2023-04-03T09:43:29.130Z,15.30
2023-04-03T09:48:34.287Z,14.33
2023-04-03T09:51:07.683Z,11.85
2023-04-03T09:53:41.026Z,15.13
2023-04-03T09:56:23.561Z,11.55
2023-04-03T09:59:08.960Z,11.22
2023-04-03T10:01:43.993Z,12.20
2023-04-03T10:04:17.864Z,12.43
2023-04-03T10:06:52.596Z,12.58
2023-04-03T10:09:26.281Z,13.20
2023-04-03T10:12:05.845Z,14.07
2023-04-03T10:14:39.213Z,14.50
2023-04-03T10:17:20.797Z,10.75
2023-04-03T10:19:56.251Z,10.32
2023-04-03T10:22:35.122Z,11.25
2023-04-03T10:25:12.483Z,10.63
2023-04-03T10:27:49.048Z,11.10
2023-04-03T10:30:32.100Z,11.05
2023-04-03T10:33:11.624Z,11.08
2023-04-03T10:35:47.311Z,10.63
2023-04-03T10:38:23.119Z,11.08
2023-04-03T10:40:59.310Z,10.63
2023-04-03T10:43:36.597Z,10.53
2023-04-03T10:46:11.923Z,10.13
2023-04-03T10:48:48.043Z,12.23
2023-04-03T10:51:25.703Z,11.38
2023-04-03T10:54:00.706Z,11.53
2023-04-03T10:56:38.470Z,11.57
2023-04-03T10:59:25.563Z,10.85
2023-04-03T11:01:59.031Z,11.93
2023-04-03T11:04:34.338Z,11.68
2023-04-03T11:07:09.710Z,10.00
2023-04-03T11:09:43.207Z,10.80
2023-04-03T11:12:17.775Z,15.40
2023-04-03T11:14:51.208Z,11.55
2023-04-03T11:17:27.403Z,11.25
2023-04-03T11:20:03.726Z,11.12
2023-04-03T11:22:38.973Z,10.48
2023-04-03T11:25:21.385Z,13.08
2023-04-03T11:27:57.256Z,11.28
2023-04-03T11:30:31.447Z,10.18
2023-04-03T11:33:12.745Z,10.98
2023-04-03T11:35:48.694Z,14.93
2023-04-03T11:38:24.129Z,12.15
2023-04-03T11:40:57.807Z,12.45
2023-04-03T11:43:31.112Z,10.68
2023-04-03T11:46:04.731Z,11.20
2023-04-03T11:48:51.233Z,11.12
2023-04-03T11:51:53.282Z,11.83
2023-04-03T11:57:00.907Z,10.32
2023-04-03T11:59:39.685Z,11.15
2023-04-03T12:02:25.768Z,13.32
2023-04-03T12:05:11.593Z,11.50
2023-04-03T12:07:44.981Z,11.08
2023-04-03T12:10:31.708Z,10.15
2023-04-03T12:13:16.440Z,10.38
2023-04-03T12:15:53.062Z,10.63
2023-04-03T12:18:54.512Z,12.37
2023-04-03T12:21:47.494Z,12.80
2023-04-03T12:24:28.006Z,10.98
2023-04-03T12:27:08.671Z,12.05
2023-04-03T12:29:44.097Z,10.78
2023-04-03T12:32:23.744Z,11.33
2023-04-03T12:35:06.518Z,13.10
2023-04-03T12:37:43.213Z,12.35
2023-04-03T12:40:22.679Z,11.53
2023-04-03T12:43:09.580Z,12.70
2023-04-03T12:45:45.638Z,12.70
2023-04-03T12:48:19.243Z,12.30
2023-04-03T12:50:52.219Z,11.97
2023-04-03T12:53:27.371Z,12.80
2023-04-03T12:56:00.330Z,12.75
2023-04-03T12:58:33.022Z,13.28
2023-04-03T13:01:06.824Z,14.70
2023-04-03T13:03:40.822Z,13.15
2023-04-03T13:06:18.685Z,12.63
2023-04-03T13:08:55.253Z,14.38
2023-04-03T13:11:28.669Z,14.80
2023-04-03T13:14:03.261Z,16.90
2023-04-03T13:16:36.305Z,14.35
2023-04-03T13:19:09.198Z,14.85
2023-04-03T13:21:41.769Z,14.38
2023-04-03T13:24:15.812Z,13.95
2023-04-03T13:26:48.766Z,14.40
2023-04-03T13:29:30.909Z,12.13
2023-04-03T13:32:05.717Z,11.88
2023-04-03T13:34:40.418Z,11.65
2023-04-03T13:37:22.014Z,11.93
2023-04-03T13:42:27.675Z,12.05
2023-04-03T13:45:13.657Z,10.30
2023-04-03T13:47:46.876Z,11.57
2023-04-03T13:50:20.928Z,11.35
2023-04-03T13:52:55.496Z,10.88
2023-04-03T13:55:30.116Z,13.88
2023-04-03T13:58:03.752Z,12.40
2023-04-03T14:00:39.659Z,12.53
2023-04-03T14:03:21.271Z,12.37
2023-04-03T14:05:53.926Z,14.53
2023-04-03T14:08:39.584Z,11.95
2023-04-03T14:11:18.942Z,12.13
2023-04-03T14:13:52.946Z,13.60
2023-04-03T14:16:26.987Z,11.10
2023-04-03T14:18:59.554Z,12.37
2023-04-03T14:21:31.906Z,10.58
2023-04-03T14:24:04.480Z,11.30
2023-04-03T14:26:37.056Z,10.93
2023-04-03T14:29:09.635Z,13.85
2023-04-03T14:31:42.644Z,11.38
2023-04-03T14:34:15.832Z,11.12
2023-04-03T14:36:49.067Z,12.33
2023-04-03T14:39:22.216Z,13.60
2023-04-03T14:41:54.763Z,12.45
2023-04-03T14:44:27.541Z,13.20
2023-04-03T14:46:59.916Z,15.35
2023-04-03T14:49:33.103Z,14.38
2023-04-03T14:52:05.683Z,14.75
2023-04-03T14:54:38.462Z,15.15
2023-04-03T14:57:14.339Z,15.68
2023-04-03T14:59:47.096Z,17.10
2023-04-03T15:02:27.826Z,15.08
2023-04-03T15:05:01.082Z,16.90
2023-04-03T15:07:36.977Z,15.68
2023-04-03T15:10:17.891Z,15.25
2023-04-03T15:12:51.069Z,15.03
2023-04-03T15:15:24.261Z,15.00
2023-04-03T15:17:59.410Z,15.50
2023-04-03T15:20:34.534Z,16.32
2023-04-03T15:23:07.315Z,14.47
2023-04-03T15:25:40.915Z,15.23
2023-04-03T15:28:15.333Z,16.93
2023-04-03T15:30:47.910Z,15.23
2023-04-03T15:33:20.733Z,14.93
2023-04-03T15:35:59.156Z,16.40
2023-04-03T15:38:40.794Z,18.57
2023-04-03T15:41:13.571Z,16.97
2023-04-03T15:43:46.155Z,17.20
2023-04-03T15:46:19.171Z,18.75
2023-04-03T15:48:52.328Z,14.93
2023-04-03T15:51:25.119Z,15.93
2023-04-03T15:53:57.473Z,16.73
2023-04-03T15:56:30.052Z,15.40
2023-04-03T15:59:03.057Z,14.47
2023-04-03T16:01:36.287Z,16.42
2023-04-03T16:04:10.529Z,18.00
2023-04-03T16:06:44.051Z,14.43
2023-04-03T16:09:16.619Z,16.73
2023-04-03T16:11:49.409Z,15.83
2023-04-03T16:14:21.967Z,16.48
2023-04-03T16:16:54.543Z,17.65
2023-04-03T16:19:27.116Z,17.20
2023-04-03T16:22:00.530Z,18.17
2023-04-03T16:24:33.371Z,15.80
2023-04-03T16:27:05.870Z,17.00
2023-04-03T16:29:38.445Z,15.80
2023-04-03T16:32:11.633Z,16.17
2023-04-03T16:34:45.002Z,14.40
2023-04-03T16:37:18.423Z,15.85
2023-04-03T16:39:51.002Z,15.72
2023-04-03T16:42:23.983Z,16.10
2023-04-03T16:44:56.767Z,17.65
2023-04-03T16:47:29.550Z,18.10
2023-04-03T16:50:02.289Z,16.37
2023-04-03T16:52:35.522Z,15.98
2023-04-03T16:55:10.561Z,17.10
2023-04-03T16:57:42.681Z,19.17
2023-04-03T17:00:17.325Z,16.42
2023-04-03T17:02:50.551Z,18.45
2023-04-03T17:05:23.147Z,16.57
2023-04-03T17:07:55.731Z,18.82
2023-04-03T17:10:28.255Z,17.45
2023-04-03T17:13:00.831Z,17.65
2023-04-03T17:15:33.610Z,17.85
2023-04-03T17:18:06.440Z,19.32
2023-04-03T17:20:39.582Z,17.25
2023-04-03T17:23:12.366Z,19.37
2023-04-03T17:25:45.140Z,18.25
2023-04-03T17:28:17.943Z,20.37
2023-04-03T17:30:50.498Z,17.12
2023-04-03T17:33:23.072Z,18.75
2023-04-03T17:35:57.962Z,17.62
2023-04-03T17:38:30.478Z,20.77
2023-04-03T17:41:04.079Z,17.75
2023-04-03T17:43:37.074Z,16.62
2023-04-03T17:46:10.522Z,17.00
2023-04-03T17:48:43.237Z,18.52
2023-04-03T17:51:16.873Z,18.40
2023-04-03T17:53:50.038Z,17.80
2023-04-03T17:56:24.446Z,17.55
2023-04-03T17:58:58.669Z,21.15
2023-04-03T18:01:31.978Z,18.65
2023-04-03T18:04:05.904Z,21.85
2023-04-03T18:06:41.465Z,21.42
2023-04-03T18:09:16.348Z,20.77
2023-04-03T18:11:49.761Z,24.63
2023-04-03T18:14:24.784Z,23.75
2023-04-03T18:16:59.205Z,28.30
2023-04-03T18:19:32.179Z,26.37
2023-04-03T18:22:06.465Z,27.35
2023-04-03T18:24:39.166Z,25.57
2023-04-03T18:27:14.223Z,26.10
2023-04-03T18:29:48.007Z,26.50
2023-04-03T18:32:21.606Z,25.37
2023-04-03T18:34:54.188Z,24.87
2023-04-03T18:37:26.752Z,25.90
2023-04-03T18:39:59.736Z,27.42
2023-04-03T18:42:32.425Z,23.12
2023-04-03T18:45:08.265Z,21.23
2023-04-03T18:47:40.959Z,21.10
2023-04-03T18:50:14.867Z,21.75
2023-04-03T18:52:50.850Z,17.25
2023-04-03T18:55:23.596Z,17.90
2023-04-03T18:57:55.828Z,17.65
2023-04-03T19:02:59.554Z,14.30
2023-04-03T19:05:32.867Z,15.13
2023-04-03T19:08:05.861Z,16.55
2023-04-03T19:10:37.821Z,14.87
2023-04-03T19:13:10.216Z,13.25
2023-04-03T19:15:43.175Z,14.65
2023-04-03T19:18:15.640Z,13.75
2023-04-03T19:20:48.592Z,14.95
2023-04-03T19:23:21.104Z,13.00
2023-04-03T19:26:01.027Z,9.58
2023-04-03T19:28:33.420Z,12.53
2023-04-03T19:31:12.344Z,9.48
2023-04-03T19:33:45.355Z,9.03
2023-04-03T19:36:19.391Z,9.55
2023-04-03T19:38:52.528Z,8.50
2023-04-03T19:41:27.493Z,10.23
2023-04-03T19:44:00.153Z,10.55
2023-04-03T19:46:32.759Z,10.78
2023-04-03T19:49:05.295Z,8.78
2023-04-03T19:51:38.068Z,8.73
2023-04-03T19:54:10.437Z,10.82
2023-04-03T19:56:43.217Z,8.40
2023-04-03T19:59:16.719Z,8.73
2023-04-03T20:01:49.422Z,9.88
2023-04-03T20:04:21.891Z,8.65
2023-04-03T20:06:55.370Z,10.53
2023-04-03T20:09:28.140Z,10.57
2023-04-03T20:12:02.797Z,9.75
2023-04-03T20:14:35.956Z,10.78
2023-04-03T20:17:10.377Z,11.48
2023-04-03T20:19:43.163Z,10.63
2023-04-03T20:22:15.934Z,12.30
2023-04-03T20:24:48.519Z,11.10
2023-04-03T20:27:21.292Z,11.43
2023-04-03T20:29:53.663Z,12.45
2023-04-03T20:32:26.036Z,11.30
2023-04-03T20:35:04.225Z,10.30
2023-04-03T20:37:37.327Z,11.90
2023-04-03T20:40:11.266Z,11.45
2023-04-03T20:42:43.757Z,11.78
2023-04-03T20:45:16.489Z,11.28
2023-04-03T20:47:49.719Z,11.57
2023-04-03T20:50:22.926Z,13.22
2023-04-03T20:52:56.476Z,12.20
2023-04-03T20:55:29.460Z,11.05
2023-04-03T21:03:07.628Z,11.57
2023-04-03T21:05:40.571Z,10.85
2023-04-03T21:08:30.238Z,11.93
2023-04-03T21:11:23.813Z,10.30
2023-04-03T21:14:13.909Z,10.32
2023-04-03T21:16:44.999Z,9.47
2023-04-03T21:19:20.997Z,9.90
2023-04-03T21:21:55.247Z,11.40
2023-04-03T21:24:28.236Z,11.53
2023-04-03T21:27:01.878Z,9.98
2023-04-03T21:29:37.040Z,9.07
2023-04-03T21:32:11.023Z,9.37
2023-04-03T21:34:44.937Z,9.87
2023-04-03T21:37:19.264Z,10.13
2023-04-03T21:39:52.753Z,9.67
2023-04-03T21:42:26.060Z,9.87
2023-04-03T21:45:00.318Z,10.13
2023-04-03T21:47:35.811Z,9.87
2023-04-03T21:50:11.985Z,10.80
2023-04-03T21:52:45.581Z,9.33
2023-04-03T21:55:20.008Z,8.90
2023-04-03T21:57:55.637Z,8.40
2023-04-03T22:00:29.517Z,8.07
2023-04-03T22:03:09.918Z,8.53
2023-04-03T22:05:44.482Z,9.50
2023-04-03T22:08:18.231Z,8.07
2023-04-03T22:10:53.039Z,8.33
2023-04-03T22:13:26.661Z,8.13
2023-04-03T22:16:01.970Z,8.43
2023-04-03T22:18:36.313Z,8.80
2023-04-03T22:21:10.329Z,7.47
2023-04-03T22:23:43.713Z,8.70
2023-04-03T22:26:17.797Z,7.67
2023-04-03T22:28:51.590Z,8.30
2023-04-03T22:31:25.196Z,8.37
2023-04-03T22:33:58.936Z,8.10
2023-04-03T22:36:32.532Z,8.10
2023-04-03T22:39:07.156Z,8.47
2023-04-03T22:41:40.548Z,8.30
2023-04-03T22:44:14.412Z,9.57
2023-04-03T22:46:47.964Z,7.63
2023-04-03T22:49:21.864Z,8.67
2023-04-03T22:51:54.935Z,8.33
2023-04-03T22:54:28.544Z,8.33
2023-04-03T22:57:01.984Z,9.13
2023-04-03T22:59:35.208Z,7.87
2023-04-03T23:02:09.355Z,8.90
2023-04-03T23:04:42.698Z,8.63
2023-04-03T23:07:17.516Z,8.70
2023-04-03T23:09:51.002Z,7.73
2023-04-03T23:12:24.354Z,8.80
2023-04-03T23:14:57.589Z,8.97
2023-04-03T23:17:30.871Z,8.60
2023-04-03T23:20:04.329Z,10.10
2023-04-03T23:22:37.901Z,7.87
2023-04-03T23:25:12.027Z,8.63
2023-04-03T23:27:51.293Z,8.97
2023-04-03T23:30:24.467Z,9.20
2023-04-03T23:32:57.898Z,8.50
2023-04-03T23:35:31.895Z,9.30
2023-04-03T23:38:05.465Z,9.23
2023-04-03T23:40:39.216Z,10.37
2023-04-03T23:43:12.805Z,9.07
2023-04-03T23:45:47.906Z,9.40
2023-04-03T23:48:21.312Z,9.40
2023-04-03T23:50:55.924Z,8.80
2023-04-03T23:53:29.375Z,8.40
2023-04-03T23:56:02.920Z,7.63
2023-04-03T23:58:36.718Z,8.20
